createdAt,value
2023-01-18T00:00:37.144Z,98226.54
2023-01-18T00:03:08.131Z,98224.17
2023-01-18T00:05:40.317Z,98229.88
2023-01-18T00:08:08.914Z,98226.33
2023-01-18T00:10:37.287Z,98223.11
2023-01-18T00:13:05.895Z,98218.05
2023-01-18T00:15:34.166Z,98216.19
2023-01-18T00:18:02.756Z,98217.20
2023-01-18T00:20:31.599Z,98213.98
2023-01-18T00:23:01.278Z,98215.70
2023-01-18T00:25:30.408Z,98217.70
2023-01-18T00:27:58.324Z,98214.13
2023-01-18T00:30:29.007Z,98207.52
2023-01-18T00:32:59.631Z,98206.45
2023-01-18T00:35:28.342Z,98203.03
2023-01-18T00:37:56.273Z,98201.48
2023-01-18T00:40:28.191Z,98197.23
2023-01-18T00:43:14.417Z,98197.86
2023-01-18T00:45:42.923Z,98193.98
2023-01-18T00:48:10.833Z,98194.65
2023-01-18T00:50:38.801Z,98193.65
2023-01-18T00:53:06.785Z,98192.15
2023-01-18T00:55:34.823Z,98189.16
2023-01-18T00:58:02.782Z,98182.29
2023-01-18T01:00:31.914Z,98181.48
2023-01-18T01:03:00.390Z,98178.79
2023-01-18T01:05:47.042Z,98171.86
2023-01-18T01:08:20.911Z,98168.15
2023-01-18T01:10:51.193Z,98167.80
2023-01-18T01:13:41.142Z,98161.07
2023-01-18T01:16:29.866Z,98156.34
2023-01-18T01:19:16.902Z,98153.79
2023-01-18T01:22:03.212Z,98151.41
2023-01-18T01:24:50.040Z,98148.67
2023-01-18T01:27:18.045Z,98147.48
2023-01-18T01:29:46.089Z,98146.79
2023-01-18T01:32:14.028Z,98142.71
2023-01-18T01:34:41.943Z,98140.00
2023-01-18T01:37:10.018Z,98142.71
2023-01-18T01:39:38.125Z,98142.02
2023-01-18T01:42:06.202Z,98139.00
2023-01-18T01:44:54.444Z,98140.70
2023-01-18T01:47:35.298Z,98139.37
2023-01-18T01:50:09.567Z,98141.41
2023-01-18T01:52:40.824Z,98148.19
2023-01-18T01:55:14.866Z,98153.38
2023-01-18T01:57:46.812Z,98153.02
2023-01-18T02:00:18.858Z,98146.83
2023-01-18T02:02:51.268Z,98143.14
2023-01-18T02:05:19.775Z,98138.58
2023-01-18T02:07:48.730Z,98140.95
2023-01-18T02:10:17.297Z,98143.04
2023-01-18T02:12:48.631Z,98151.86
2023-01-18T02:15:19.168Z,98153.59
2023-01-18T02:18:07.195Z,98149.77
2023-01-18T02:21:12.129Z,98149.17
2023-01-18T02:24:13.754Z,98161.08
2023-01-18T02:26:56.989Z,98156.05
2023-01-18T02:29:43.789Z,98146.31
2023-01-18T02:32:32.379Z,98145.98
2023-01-18T02:35:10.404Z,98148.34
2023-01-18T02:37:46.603Z,98151.36
2023-01-18T02:40:22.268Z,98148.86
2023-01-18T02:43:07.877Z,98151.35
2023-01-18T02:45:58.776Z,98145.45
2023-01-18T02:48:33.107Z,98155.89
2023-01-18T02:51:01.096Z,98155.52
2023-01-18T02:53:30.428Z,98151.14
2023-01-18T02:56:03.454Z,98150.16
2023-01-18T02:58:34.316Z,98145.20
2023-01-18T03:01:06.988Z,98145.08
2023-01-18T03:03:36.018Z,98145.27
2023-01-18T03:06:08.363Z,98139.05
2023-01-18T03:08:40.168Z,98134.18
2023-01-18T03:11:16.272Z,98128.98
2023-01-18T03:14:01.354Z,98126.62
2023-01-18T03:16:39.625Z,98121.72
2023-01-18T03:19:32.028Z,98120.48
2023-01-18T03:22:02.667Z,98112.30
2023-01-18T03:24:40.505Z,98108.71
2023-01-18T03:27:29.032Z,98103.75
2023-01-18T03:30:15.594Z,98104.36
2023-01-18T03:33:02.423Z,98096.54
2023-01-18T03:35:32.332Z,98087.02
2023-01-18T03:38:00.637Z,98074.83
2023-01-18T03:40:30.932Z,98067.86
2023-01-18T03:43:05.764Z,98064.27
2023-01-18T03:45:37.335Z,98056.84
2023-01-18T03:48:08.731Z,98057.97
2023-01-18T03:50:45.228Z,98053.87
2023-01-18T03:53:19.586Z,98042.85
2023-01-18T03:55:51.618Z,98038.59
2023-01-18T03:58:23.495Z,98028.58
2023-01-18T04:00:53.625Z,98022.64
2023-01-18T04:03:21.650Z,98016.54
2023-01-18T04:05:49.969Z,98013.13
2023-01-18T04:08:21.289Z,98002.63
2023-01-18T04:10:49.257Z,97996.36
2023-01-18T04:13:17.262Z,97987.05
2023-01-18T04:15:45.368Z,97981.27
2023-01-18T04:18:13.348Z,97977.56
2023-01-18T04:20:41.227Z,97974.35
2023-01-18T04:23:09.365Z,97981.60
2023-01-18T04:25:37.779Z,97983.11
2023-01-18T04:28:05.869Z,97982.41
2023-01-18T04:30:33.740Z,97982.73
2023-01-18T04:33:01.981Z,97983.30
2023-01-18T04:35:30.192Z,97983.13
2023-01-18T04:37:59.025Z,97986.84
2023-01-18T04:40:27.075Z,97987.00
2023-01-18T04:42:55.810Z,97984.77
2023-01-18T04:45:24.211Z,97984.06
2023-01-18T04:47:52.148Z,97985.08
2023-01-18T04:50:20.041Z,97984.20
2023-01-18T04:52:48.044Z,97980.16
2023-01-18T04:55:16.481Z,97980.16
2023-01-18T04:57:45.117Z,97980.30
2023-01-18T05:00:14.961Z,97985.83
2023-01-18T05:02:42.942Z,97987.48
2023-01-18T05:05:11.274Z,97988.11
2023-01-18T05:07:39.365Z,97989.42
2023-01-18T05:10:09.515Z,97988.34
2023-01-18T05:12:37.589Z,97989.34
2023-01-18T05:15:07.486Z,97996.52
2023-01-18T05:17:35.430Z,97992.60
2023-01-18T05:20:05.667Z,97992.37
2023-01-18T05:22:36.237Z,97986.09
2023-01-18T05:25:05.314Z,97981.65
2023-01-18T05:27:33.764Z,97981.98
2023-01-18T05:30:01.734Z,97982.47
2023-01-18T05:32:29.846Z,97981.66
2023-01-18T05:35:01.177Z,97983.20
2023-01-18T05:37:29.299Z,97980.31
2023-01-18T05:39:57.370Z,97976.74
2023-01-18T05:42:25.457Z,97972.66
2023-01-18T05:44:53.634Z,97966.42
2023-01-18T05:47:21.745Z,97952.73
2023-01-18T05:49:49.683Z,97945.93
2023-01-18T05:52:17.671Z,97938.80
2023-01-18T05:54:45.910Z,97935.77
2023-01-18T05:57:13.807Z,97922.98
2023-01-18T05:59:41.718Z,97919.14
2023-01-18T06:02:09.767Z,97912.77
2023-01-18T06:04:37.693Z,97904.20
2023-01-18T06:07:05.892Z,97899.17
2023-01-18T06:09:33.932Z,97893.45
2023-01-18T06:12:02.700Z,97883.04
2023-01-18T06:14:30.649Z,97884.14
2023-01-18T06:16:58.549Z,97886.02
2023-01-18T06:19:26.530Z,97884.68
2023-01-18T06:21:54.563Z,97882.36
2023-01-18T06:24:22.486Z,97878.64
2023-01-18T06:26:50.437Z,97872.77
2023-01-18T06:29:18.351Z,97868.06
2023-01-18T06:31:46.303Z,97862.70
2023-01-18T06:34:14.557Z,97847.71
2023-01-18T06:36:44.597Z,97830.20
2023-01-18T06:39:12.646Z,97815.73
2023-01-18T06:41:40.518Z,97813.61
2023-01-18T06:44:08.861Z,97812.35
2023-01-18T06:46:36.777Z,97804.50
2023-01-18T06:49:04.660Z,97816.84
2023-01-18T06:51:32.626Z,97842.39
2023-01-18T06:54:00.574Z,97872.64
2023-01-18T06:56:28.707Z,97875.18
2023-01-18T06:58:58.296Z,97860.72
2023-01-18T07:01:26.894Z,97859.75
2023-01-18T07:03:54.998Z,97855.02
2023-01-18T07:06:23.068Z,97845.23
2023-01-18T07:08:51.122Z,97837.94
2023-01-18T07:11:19.429Z,97829.75
2023-01-18T07:13:48.857Z,97825.98
2023-01-18T07:16:17.278Z,97830.54
2023-01-18T07:18:47.560Z,97840.64
2023-01-18T07:21:17.001Z,97840.11
2023-01-18T07:23:45.030Z,97850.41
2023-01-18T07:26:15.457Z,97850.23
2023-01-18T07:28:44.117Z,97858.45
2023-01-18T07:31:12.559Z,97864.63
2023-01-18T07:33:40.484Z,97868.64
2023-01-18T07:36:10.695Z,97869.61
2023-01-18T07:38:39.272Z,97861.29
2023-01-18T07:41:09.595Z,97851.11
2023-01-18T07:43:38.077Z,97854.62
2023-01-18T07:46:08.226Z,97847.50
2023-01-18T07:48:38.799Z,97839.78
2023-01-18T07:51:09.761Z,97843.63
2023-01-18T07:53:39.057Z,97842.94
2023-01-18T07:56:08.915Z,97845.23
2023-01-18T07:58:37.585Z,97846.91
2023-01-18T08:01:08.431Z,97848.98
2023-01-18T08:03:37.326Z,97851.54
2023-01-18T08:06:07.237Z,97847.61
2023-01-18T08:08:36.812Z,97837.93
2023-01-18T08:11:07.277Z,97838.55
2023-01-18T08:13:35.623Z,97832.33
2023-01-18T08:16:06.681Z,97822.86
2023-01-18T08:18:34.927Z,97819.61
2023-01-18T08:21:03.341Z,97821.64
2023-01-18T08:23:31.296Z,97832.10
2023-01-18T08:26:02.498Z,97833.77
2023-01-18T08:28:31.285Z,97822.95
2023-01-18T08:31:10.615Z,97812.23
2023-01-18T08:33:40.600Z,97804.79
2023-01-18T08:36:11.115Z,97800.19
2023-01-18T08:38:39.191Z,97788.83
2023-01-18T08:41:07.200Z,97770.23
2023-01-18T08:43:35.351Z,97768.03
2023-01-18T08:46:03.406Z,97769.38
2023-01-18T08:48:31.582Z,97779.33
2023-01-18T08:51:03.377Z,97791.80
2023-01-18T08:53:31.641Z,97794.99
2023-01-18T08:56:02.957Z,97798.52
2023-01-18T08:58:32.804Z,97800.34
2023-01-18T09:01:04.055Z,97807.27
2023-01-18T09:03:32.058Z,97808.55
2023-01-18T09:06:01.965Z,97812.38
2023-01-18T09:08:31.029Z,97813.54
2023-01-18T09:11:02.826Z,97810.11
2023-01-18T09:13:31.697Z,97805.64
2023-01-18T09:16:00.965Z,97807.13
2023-01-18T09:18:29.729Z,97805.95
2023-01-18T09:20:57.928Z,97795.12
2023-01-18T09:23:26.281Z,97793.41
2023-01-18T09:26:02.676Z,97788.84
2023-01-18T09:28:30.863Z,97777.83
2023-01-18T09:31:01.586Z,97776.94
2023-01-18T09:33:37.474Z,97770.46
2023-01-18T09:36:09.931Z,97765.67
2023-01-18T09:38:39.135Z,97761.09
2023-01-18T09:41:19.398Z,97744.15
2023-01-18T09:43:51.226Z,97729.98
2023-01-18T09:46:20.871Z,97728.81
2023-01-18T09:48:54.336Z,97733.23
2023-01-18T09:51:27.552Z,97739.48
2023-01-18T09:54:11.261Z,97730.41
2023-01-18T09:56:46.883Z,97718.73
2023-01-18T09:59:26.977Z,97724.11
2023-01-18T10:01:56.237Z,97733.07
2023-01-18T10:04:29.601Z,97736.81
2023-01-18T10:07:00.356Z,97743.29
2023-01-18T10:09:32.527Z,97746.85
2023-01-18T10:12:02.660Z,97742.58
2023-01-18T10:14:43.416Z,97730.09
2023-01-18T10:17:17.137Z,97722.50
2023-01-18T10:19:45.143Z,97722.67
2023-01-18T10:22:21.524Z,97731.10
2023-01-18T10:24:56.855Z,97739.73
2023-01-18T10:27:40.436Z,97737.00
2023-01-18T10:30:25.044Z,97732.94
2023-01-18T10:32:57.556Z,97735.24
2023-01-18T10:35:29.763Z,97730.13
2023-01-18T10:38:01.756Z,97727.36
2023-01-18T10:40:29.969Z,97720.94
2023-01-18T10:43:01.997Z,97706.23
2023-01-18T10:45:32.711Z,97697.55
2023-01-18T10:48:27.383Z,97692.95
2023-01-18T10:50:57.468Z,97702.02
2023-01-18T10:53:33.601Z,97711.97
2023-01-18T10:56:04.905Z,97712.78
2023-01-18T10:58:38.292Z,97705.33
2023-01-18T11:01:12.603Z,97700.21
2023-01-18T11:03:46.987Z,97689.66
2023-01-18T11:06:16.466Z,97684.55
2023-01-18T11:08:44.630Z,97678.81
2023-01-18T11:11:18.822Z,97676.90
2023-01-18T11:13:48.360Z,97678.73
2023-01-18T11:16:18.425Z,97679.06
2023-01-18T11:19:01.094Z,97674.02
2023-01-18T11:21:40.350Z,97669.97
2023-01-18T11:24:13.394Z,97671.30
2023-01-18T11:26:53.314Z,97669.80
2023-01-18T11:29:26.519Z,97671.16
2023-01-18T11:32:00.738Z,97673.87
2023-01-18T11:34:32.241Z,97675.68
2023-01-18T11:37:01.382Z,97671.38
2023-01-18T11:39:32.264Z,97674.38
2023-01-18T11:42:29.643Z,97675.70
2023-01-18T11:45:06.297Z,97674.52
2023-01-18T11:47:51.164Z,97673.14
2023-01-18T11:50:28.882Z,97671.42
2023-01-18T11:53:03.728Z,97673.27
2023-01-18T11:55:36.681Z,97673.58
2023-01-18T11:58:23.157Z,97678.59
2023-01-18T12:00:58.658Z,97679.91
2023-01-18T12:03:52.762Z,97675.64
2023-01-18T12:06:35.625Z,97671.22
2023-01-18T12:09:29.902Z,97663.98
2023-01-18T12:12:19.847Z,97657.29
2023-01-18T12:15:04.160Z,97653.59
2023-01-18T12:17:46.764Z,97662.66
2023-01-18T12:20:24.773Z,97663.50
2023-01-18T12:23:12.881Z,97669.23
2023-01-18T12:26:11.808Z,97675.27
2023-01-18T12:28:57.522Z,97678.14
2023-01-18T12:31:38.633Z,97673.75
2023-01-18T12:34:14.630Z,97677.95
2023-01-18T12:37:03.175Z,97682.73
2023-01-18T12:39:52.085Z,97684.33
2023-01-18T12:42:28.126Z,97687.30
2023-01-18T12:45:09.514Z,97676.75
2023-01-18T12:47:40.200Z,97665.01
2023-01-18T12:50:23.048Z,97670.82
2023-01-18T12:52:54.726Z,97685.28
2023-01-18T12:55:26.380Z,97690.34
2023-01-18T12:57:58.276Z,97702.19
2023-01-18T13:00:33.185Z,97709.15
2023-01-18T13:03:05.946Z,97709.18
2023-01-18T13:05:46.872Z,97716.63
2023-01-18T13:08:20.541Z,97720.36
2023-01-18T13:10:49.732Z,97710.36
2023-01-18T13:13:25.499Z,97706.07
2023-01-18T13:16:01.299Z,97710.90
2023-01-18T13:18:36.571Z,97708.35
2023-01-18T13:21:09.224Z,97720.16
2023-01-18T13:23:46.761Z,97726.23
2023-01-18T13:26:24.471Z,97730.39
2023-01-18T13:29:22.077Z,97732.02
2023-01-18T13:31:50.273Z,97739.55
2023-01-18T13:34:31.299Z,97740.91
2023-01-18T13:37:13.817Z,97741.80
2023-01-18T13:39:47.636Z,97742.73
2023-01-18T13:42:33.887Z,97743.34
2023-01-18T13:45:15.263Z,97750.47
2023-01-18T13:47:54.921Z,97750.33
2023-01-18T13:50:41.909Z,97749.95
2023-01-18T13:53:31.341Z,97756.16
2023-01-18T13:56:27.310Z,97762.60
2023-01-18T13:59:17.863Z,97764.29
2023-01-18T14:01:48.529Z,97769.36
2023-01-18T14:04:25.142Z,97772.56
2023-01-18T14:06:55.676Z,97776.13
2023-01-18T14:09:35.483Z,97777.67
2023-01-18T14:12:05.534Z,97779.08
2023-01-18T14:14:35.052Z,97785.84
2023-01-18T14:17:15.957Z,97793.83
2023-01-18T14:20:08.270Z,97799.91
2023-01-18T14:22:54.990Z,97803.17
2023-01-18T14:25:40.274Z,97805.58
2023-01-18T14:28:13.211Z,97804.29
2023-01-18T14:30:44.016Z,97806.07
2023-01-18T14:33:17.487Z,97808.52
2023-01-18T14:36:16.706Z,97810.13
2023-01-18T14:38:44.830Z,97811.70
2023-01-18T14:41:17.616Z,97813.13
2023-01-18T14:43:48.019Z,97814.55
2023-01-18T14:46:22.862Z,97820.21
2023-01-18T14:48:54.257Z,97824.69
2023-01-18T14:51:25.302Z,97824.41
2023-01-18T14:53:57.420Z,97824.13
2023-01-18T14:56:26.781Z,97836.39
2023-01-18T14:58:56.863Z,97845.27
2023-01-18T15:01:29.195Z,97858.56
2023-01-18T15:03:58.768Z,97860.52
2023-01-18T15:06:33.441Z,97863.46
2023-01-18T15:09:02.704Z,97866.20
2023-01-18T15:11:31.267Z,97866.58
2023-01-18T15:13:59.717Z,97874.39
2023-01-18T15:16:30.468Z,97881.83
2023-01-18T15:19:01.386Z,97881.52
2023-01-18T15:21:33.563Z,97883.58
2023-01-18T15:24:05.685Z,97891.67
2023-01-18T15:26:43.273Z,97902.18
2023-01-18T15:29:16.917Z,97915.94
2023-01-18T15:31:50.961Z,97926.34
2023-01-18T15:34:24.781Z,97931.86
2023-01-18T15:36:54.643Z,97936.52
2023-01-18T15:39:22.755Z,97940.06
2023-01-18T15:41:53.551Z,97938.55
2023-01-18T15:44:34.557Z,97942.94
2023-01-18T15:47:13.757Z,97944.84
2023-01-18T15:49:47.236Z,97954.01
2023-01-18T15:52:15.811Z,97962.64
2023-01-18T15:54:49.118Z,97965.52
2023-01-18T15:57:20.321Z,97968.41
2023-01-18T15:59:48.609Z,97976.52
2023-01-18T16:02:19.113Z,97981.46
2023-01-18T16:04:47.173Z,97988.57
2023-01-18T16:07:34.341Z,97994.67
2023-01-18T16:10:30.549Z,98005.35
2023-01-18T16:13:22.979Z,98012.96
2023-01-18T16:16:13.397Z,98024.47
2023-01-18T16:18:43.601Z,98029.59
2023-01-18T16:21:15.036Z,98041.29
2023-01-18T16:23:48.866Z,98047.34
2023-01-18T16:26:22.472Z,98055.96
2023-01-18T16:28:51.709Z,98064.39
2023-01-18T16:31:23.142Z,98067.24
2023-01-18T16:33:51.130Z,98073.63
2023-01-18T16:36:20.382Z,98081.73
2023-01-18T16:38:48.666Z,98092.38
2023-01-18T16:41:16.550Z,98103.70
2023-01-18T16:43:44.769Z,98113.17
2023-01-18T16:46:12.891Z,98116.58
2023-01-18T16:48:40.861Z,98125.72
2023-01-18T16:51:17.827Z,98129.14
2023-01-18T16:53:47.589Z,98131.33
2023-01-18T16:56:15.746Z,98132.02
2023-01-18T16:58:43.785Z,98140.79
2023-01-18T17:01:15.267Z,98144.71
2023-01-18T17:03:43.445Z,98152.65
2023-01-18T17:06:17.025Z,98157.22
2023-01-18T17:08:45.065Z,98162.80
2023-01-18T17:11:13.694Z,98168.35
2023-01-18T17:13:42.131Z,98166.83
2023-01-18T17:16:15.808Z,98170.25
2023-01-18T17:18:44.288Z,98182.46
2023-01-18T17:21:15.465Z,98186.55
2023-01-18T17:23:44.707Z,98188.95
2023-01-18T17:26:14.785Z,98200.24
2023-01-18T17:28:43.395Z,98206.69
2023-01-18T17:31:11.513Z,98215.48
2023-01-18T17:33:39.863Z,98221.75
2023-01-18T17:36:11.761Z,98229.69
2023-01-18T17:38:39.754Z,98234.45
2023-01-18T17:41:13.437Z,98238.50
2023-01-18T17:43:41.548Z,98248.50
2023-01-18T17:46:10.696Z,98254.09
2023-01-18T17:48:39.458Z,98256.64
2023-01-18T17:51:08.508Z,98260.51
2023-01-18T17:53:38.394Z,98264.05
2023-01-18T17:56:11.903Z,98271.61
2023-01-18T17:58:40.383Z,98274.67
2023-01-18T18:01:10.327Z,98279.91
2023-01-18T18:03:40.141Z,98280.91
2023-01-18T18:06:09.258Z,98281.58
2023-01-18T18:08:39.262Z,98291.35
2023-01-18T18:11:09.086Z,98292.86
2023-01-18T18:13:40.367Z,98297.42
2023-01-18T18:16:13.833Z,98305.86
2023-01-18T18:18:44.895Z,98309.54
2023-01-18T18:21:13.139Z,98313.60
2023-01-18T18:23:41.112Z,98318.16
2023-01-18T18:26:09.182Z,98321.33
2023-01-18T18:28:37.455Z,98320.81
2023-01-18T18:31:13.070Z,98328.73
2023-01-18T18:33:44.463Z,98333.83
2023-01-18T18:36:12.468Z,98345.83
2023-01-18T18:38:40.391Z,98350.39
2023-01-18T18:41:08.422Z,98357.16
2023-01-18T18:43:36.501Z,98366.62
2023-01-18T18:46:07.782Z,98377.10
2023-01-18T18:48:35.759Z,98382.01
2023-01-18T18:51:04.755Z,98396.34
2023-01-18T18:53:39.450Z,98406.46
2023-01-18T18:56:08.973Z,98417.10
2023-01-18T18:58:39.018Z,98423.38
2023-01-18T19:01:17.059Z,98425.28
2023-01-18T19:03:46.292Z,98424.26
2023-01-18T19:06:14.434Z,98427.80
2023-01-18T19:08:42.401Z,98437.42
2023-01-18T19:11:10.525Z,98450.05
2023-01-18T19:13:38.717Z,98462.67
2023-01-18T19:16:07.846Z,98470.59
2023-01-18T19:18:35.989Z,98478.05
2023-01-18T19:21:07.279Z,98487.66
2023-01-18T19:23:35.433Z,98504.03
2023-01-18T19:26:03.591Z,98511.13
2023-01-18T19:28:32.086Z,98515.54
2023-01-18T19:31:05.135Z,98523.48
2023-01-18T19:33:33.341Z,98531.62
2023-01-18T19:36:09.690Z,98539.06
2023-01-18T19:38:45.812Z,98542.78
2023-01-18T19:41:14.767Z,98550.56
2023-01-18T19:43:42.695Z,98553.08
2023-01-18T19:46:14.350Z,98551.73
2023-01-18T19:48:43.265Z,98555.28
2023-01-18T19:51:21.633Z,98560.02
2023-01-18T19:53:51.759Z,98557.80
2023-01-18T19:56:20.202Z,98558.14
2023-01-18T19:58:49.306Z,98560.32
2023-01-18T20:01:34.618Z,98565.54
2023-01-18T20:04:04.213Z,98571.95
2023-01-18T20:06:32.844Z,98577.87
2023-01-18T20:09:00.801Z,98575.67
2023-01-18T20:11:28.714Z,98581.60
2023-01-18T20:13:56.818Z,98578.20
2023-01-18T20:16:24.906Z,98583.77
2023-01-18T20:18:53.786Z,98590.86
2023-01-18T20:21:21.772Z,98603.15
2023-01-18T20:23:50.054Z,98611.94
2023-01-18T20:26:27.701Z,98619.84
2023-01-18T20:29:05.743Z,98626.44
2023-01-18T20:31:34.072Z,98644.63
2023-01-18T20:34:02.715Z,98655.27
2023-01-18T20:36:34.086Z,98664.23
2023-01-18T20:39:02.244Z,98654.96
2023-01-18T20:41:30.312Z,98650.73
2023-01-18T20:43:58.545Z,98655.46
2023-01-18T20:46:26.693Z,98669.95
2023-01-18T20:48:54.678Z,98679.25
2023-01-18T20:51:22.640Z,98685.30
2023-01-18T20:53:50.594Z,98688.35
2023-01-18T20:56:28.700Z,98695.42
2023-01-18T20:58:58.427Z,98702.15
2023-01-18T21:01:31.366Z,98709.73
2023-01-18T21:04:00.469Z,98720.68
2023-01-18T21:06:29.285Z,98722.19
2023-01-18T21:08:59.021Z,98732.14
2023-01-18T21:11:27.397Z,98741.25
2023-01-18T21:13:58.337Z,98744.63
2023-01-18T21:16:27.370Z,98745.63
2023-01-18T21:18:55.945Z,98755.77
2023-01-18T21:21:26.165Z,98766.23
2023-01-18T21:23:54.511Z,98771.48
2023-01-18T21:26:23.581Z,98774.36
2023-01-18T21:28:51.538Z,98777.40
2023-01-18T21:31:19.588Z,98775.71
2023-01-18T21:33:49.240Z,98772.01
2023-01-18T21:36:19.372Z,98768.14
2023-01-18T21:38:47.535Z,98770.48
2023-01-18T21:41:33.938Z,98774.88
2023-01-18T21:44:20.183Z,98788.21
2023-01-18T21:46:50.458Z,98790.39
2023-01-18T21:50:01.194Z,98795.44
2023-01-18T21:52:58.508Z,98811.65
2023-01-18T21:55:26.523Z,98821.77
2023-01-18T21:58:12.645Z,98829.86
2023-01-18T22:00:41.805Z,98836.47
2023-01-18T22:03:09.844Z,98843.91
2023-01-18T22:05:40.812Z,98850.50
2023-01-18T22:08:09.238Z,98868.58
2023-01-18T22:10:37.400Z,98879.73
2023-01-18T22:13:05.441Z,98884.63
2023-01-18T22:15:33.744Z,98882.77
2023-01-18T22:18:02.441Z,98879.59
2023-01-18T22:20:31.693Z,98886.33
2023-01-18T22:22:59.918Z,98891.06
2023-01-18T22:25:27.885Z,98896.14
2023-01-18T22:27:55.997Z,98893.44
2023-01-18T22:30:24.745Z,98887.70
2023-01-18T22:32:52.919Z,98889.04
2023-01-18T22:35:20.949Z,98894.27
2023-01-18T22:37:48.998Z,98912.69
2023-01-18T22:40:17.953Z,98919.11
2023-01-18T22:42:46.129Z,98916.75
2023-01-18T22:45:14.421Z,98919.60
2023-01-18T22:47:42.528Z,98929.92
2023-01-18T22:50:12.157Z,98929.73
2023-01-18T22:52:40.113Z,98930.23
2023-01-18T22:55:09.656Z,98924.32
2023-01-18T22:57:37.683Z,98926.17
2023-01-18T23:00:08.234Z,98930.38
2023-01-18T23:02:36.231Z,98934.95
2023-01-18T23:05:05.169Z,98948.63
2023-01-18T23:07:33.199Z,98946.27
2023-01-18T23:10:01.329Z,98944.91
2023-01-18T23:12:29.342Z,98946.77
2023-01-18T23:15:15.500Z,98945.94
2023-01-18T23:17:47.094Z,98949.64
2023-01-18T23:20:15.229Z,98956.73
2023-01-18T23:22:44.466Z,98960.29
2023-01-18T23:25:12.571Z,98968.73
2023-01-18T23:27:40.574Z,98975.65
2023-01-18T23:30:11.021Z,98981.07
2023-01-18T23:32:39.216Z,98990.36
2023-01-18T23:35:09.084Z,98988.67
2023-01-18T23:37:37.117Z,98978.36
2023-01-18T23:40:26.597Z,98988.84
2023-01-18T23:43:13.614Z,98999.98
2023-01-18T23:46:01.938Z,99009.11
2023-01-18T23:48:47.953Z,99026.85
2023-01-18T23:51:34.318Z,99026.68
2023-01-18T23:54:15.418Z,99029.05
2023-01-18T23:56:44.199Z,99035.11
2023-01-18T23:59:13.174Z,99043.08
